Ariccia, Italy

1:10 PM CEST on September 17, 2014 (GMT +0200)
ariccia | Change Station
CLOSE
Current Station
Personal Weather Station
Location: Ariccia, LAZIO
Elevation: 1421 ft
Nearby Weather Stations

Elev 1421 ft 41.73 °N, 12.67 °E | Updated 200 days ago

Mostly Cloudy
Mostly Cloudy
78 °F
Feels Like 78 °F
N
5
Wind Variable Wind from SE
Gusts mph

Today
High -- | Low -- °F
--% Chance of Precip.
Yesterday
High -- | Low -- °F
Precip. -- in
6:51 AM 7:15 PM
Last Quarter, 37% visible
Pressure 29.95 in
Visibility 6.2 miles
Clouds Few 3000 ft
Scattered Clouds 7000 ft
Dew Point 59 °F
Humidity 53%
Rainfall 0.47 in
Snow Depth Not available.
UV 6 out of 12
Pollen Not available.
Air Quality Not available.
Flu Activity Not available.
METAR LIRE 171055Z 22006KT 9999 FEW030 SCT070 24/19 Q1014 RMK SCT VIS MIN 9999 WIND THR31 23006KT BLU

More Conditions Fewer Conditions

Pressure 29.95 in
Visibility 6.2 miles
Clouds Few 3000 ft
Scattered Clouds 7000 ft
Dew Point 59 °F
Humidity 53%
Rainfall 0.47 in
Snow Depth Not available.
UV 6 out of 12
Pollen Not available.
Air Quality Not available.
Flu Activity Not available.
METAR LIRE 171055Z 22006KT 9999 FEW030 SCT070 24/19 Q1014 RMK SCT VIS MIN 9999 WIND THR31 23006KT BLU

More Conditions Fewer Conditions

10-Day Weather Forecast

Almanac

Astronomy

Sep. 17, 2014 Rise Set
Actual Time 6:51 AM CEST 7:15 PM CEST
Civil Twilight 6:23 AM CEST 7:43 PM CEST
Nautical Twilight 5:50 AM CEST 8:16 PM CEST
Astronomical Twilight 5:16 AM CEST 8:49 PM CEST
Moon 12:33 AM CEST 3:16 PM CEST
Length of Visible Light 13h 20m
Length of Day
12h 24m
Tomorrow will be 2m 45s shorter.
Last Quarter, 37% of the Moon is Illuminated
Today
Last Quarter
Sep 24
New
Oct 1
First Quarter
Oct 8
Full
Oct 15
Last Quarter

Yesterday's Extremes

Country Highs Country Lows

Community

WunderPhotos

Upload Photos

1,754,002 photos uploaded!

Nearby

Snow Depth

Not available.

Earthquake Activity

City Distance Mag. Time & Date
No recent earthquake activity has been reported nearby.
Minimum magnitude displayed is 2.5.

Coastal Water Temperatures

Place Temperature
No Stations Reporting

Nearby Weather Stations